sensor_id;sensor_type;location;lat;lon;timestamp;temperature;humidity
19088;DHT22;9676;50.916;13.352;2022-07-23T00:02:37;23.90;48.10
19088;DHT22;9676;50.916;13.352;2022-07-23T00:05:26;23.90;48.20
19088;DHT22;9676;50.916;13.352;2022-07-23T00:08:17;23.80;48.20
19088;DHT22;9676;50.916;13.352;2022-07-23T00:11:08;23.80;48.20
19088;DHT22;9676;50.916;13.352;2022-07-23T00:13:57;23.70;48.30
19088;DHT22;9676;50.916;13.352;2022-07-23T00:16:47;23.70;48.30
19088;DHT22;9676;50.916;13.352;2022-07-23T00:19:36;23.70;48.40
19088;DHT22;9676;50.916;13.352;2022-07-23T00:22:26;23.60;48.40
19088;DHT22;9676;50.916;13.352;2022-07-23T00:25:16;23.60;48.60
19088;DHT22;9676;50.916;13.352;2022-07-23T00:28:18;23.60;48.70
19088;DHT22;9676;50.916;13.352;2022-07-23T00:31:08;23.50;48.60
19088;DHT22;9676;50.916;13.352;2022-07-23T00:33:57;23.50;48.70
19088;DHT22;9676;50.916;13.352;2022-07-23T00:36:49;23.50;48.80
19088;DHT22;9676;50.916;13.352;2022-07-23T00:39:41;23.50;49.10
19088;DHT22;9676;50.916;13.352;2022-07-23T00:42:31;23.40;49.00
19088;DHT22;9676;50.916;13.352;2022-07-23T00:45:22;23.40;49.10
19088;DHT22;9676;50.916;13.352;2022-07-23T00:48:12;23.40;49.30
19088;DHT22;9676;50.916;13.352;2022-07-23T00:51:01;23.40;49.40
19088;DHT22;9676;50.916;13.352;2022-07-23T00:53:51;23.40;49.50
19088;DHT22;9676;50.916;13.352;2022-07-23T00:56:41;23.40;49.70
19088;DHT22;9676;50.916;13.352;2022-07-23T00:59:32;23.40;49.80
19088;DHT22;9676;50.916;13.352;2022-07-23T01:02:23;23.50;50.00
19088;DHT22;9676;50.916;13.352;2022-07-23T01:05:12;23.50;50.00
19088;DHT22;9676;50.916;13.352;2022-07-23T01:08:02;23.50;50.00
19088;DHT22;9676;50.916;13.352;2022-07-23T01:10:51;23.50;50.00
19088;DHT22;9676;50.916;13.352;2022-07-23T01:13:42;23.50;50.00
19088;DHT22;9676;50.916;13.352;2022-07-23T01:16:32;23.50;50.00
19088;DHT22;9676;50.916;13.352;2022-07-23T01:19:23;23.50;50.00
19088;DHT22;9676;50.916;13.352;2022-07-23T01:22:13;23.50;50.10
19088;DHT22;9676;50.916;13.352;2022-07-23T01:25:07;23.50;50.10
19088;DHT22;9676;50.916;13.352;2022-07-23T01:27:58;23.50;50.30
19088;DHT22;9676;50.916;13.352;2022-07-23T01:30:48;23.40;50.00
19088;DHT22;9676;50.916;13.352;2022-07-23T01:33:38;23.40;50.30
19088;DHT22;9676;50.916;13.352;2022-07-23T01:36:27;23.30;50.30
19088;DHT22;9676;50.916;13.352;2022-07-23T01:39:17;23.30;50.50
19088;DHT22;9676;50.916;13.352;2022-07-23T01:42:09;23.30;50.60
19088;DHT22;9676;50.916;13.352;2022-07-23T01:45:00;23.20;50.60
19088;DHT22;9676;50.916;13.352;2022-07-23T01:47:50;23.20;51.40
19088;DHT22;9676;50.916;13.352;2022-07-23T01:50:40;23.20;50.80
19088;DHT22;9676;50.916;13.352;2022-07-23T01:53:52;23.10;51.00
19088;DHT22;9676;50.916;13.352;2022-07-23T01:56:41;23.10;51.00
19088;DHT22;9676;50.916;13.352;2022-07-23T01:59:33;23.00;51.00
19088;DHT22;9676;50.916;13.352;2022-07-23T02:02:23;22.90;51.10
19088;DHT22;9676;50.916;13.352;2022-07-23T02:05:14;22.90;51.40
19088;DHT22;9676;50.916;13.352;2022-07-23T02:08:05;22.80;51.30
19088;DHT22;9676;50.916;13.352;2022-07-23T02:10:57;22.80;51.20
19088;DHT22;9676;50.916;13.352;2022-07-23T02:13:46;22.70;51.30
19088;DHT22;9676;50.916;13.352;2022-07-23T02:16:37;22.70;51.40
19088;DHT22;9676;50.916;13.352;2022-07-23T02:19:27;22.70;51.60
19088;DHT22;9676;50.916;13.352;2022-07-23T02:22:17;22.60;51.60
19088;DHT22;9676;50.916;13.352;2022-07-23T02:25:09;22.60;51.80
19088;DHT22;9676;50.916;13.352;2022-07-23T02:27:59;22.60;51.80
19088;DHT22;9676;50.916;13.352;2022-07-23T02:30:48;22.60;51.90
19088;DHT22;9676;50.916;13.352;2022-07-23T02:33:39;22.60;51.90
19088;DHT22;9676;50.916;13.352;2022-07-23T02:36:29;22.60;52.10
19088;DHT22;9676;50.916;13.352;2022-07-23T02:39:19;22.60;52.10
19088;DHT22;9676;50.916;13.352;2022-07-23T02:42:09;22.60;52.20
19088;DHT22;9676;50.916;13.352;2022-07-23T02:44:58;22.50;52.10
19088;DHT22;9676;50.916;13.352;2022-07-23T02:47:48;22.50;52.20
19088;DHT22;9676;50.916;13.352;2022-07-23T02:50:39;22.50;52.30
19088;DHT22;9676;50.916;13.352;2022-07-23T02:53:29;22.50;52.40
19088;DHT22;9676;50.916;13.352;2022-07-23T02:56:19;22.40;52.40
19088;DHT22;9676;50.916;13.352;2022-07-23T02:59:08;22.40;52.40
19088;DHT22;9676;50.916;13.352;2022-07-23T03:01:58;22.40;52.50
19088;DHT22;9676;50.916;13.352;2022-07-23T03:04:48;22.40;52.60
19088;DHT22;9676;50.916;13.352;2022-07-23T03:07:39;22.40;52.70
19088;DHT22;9676;50.916;13.352;2022-07-23T03:10:29;22.40;52.90
19088;DHT22;9676;50.916;13.352;2022-07-23T03:13:18;22.40;52.90
19088;DHT22;9676;50.916;13.352;2022-07-23T03:16:08;22.30;52.90
19088;DHT22;9676;50.916;13.352;2022-07-23T03:18:57;22.40;53.10
19088;DHT22;9676;50.916;13.352;2022-07-23T03:21:47;22.40;53.20
19088;DHT22;9676;50.916;13.352;2022-07-23T03:24:38;22.40;53.20
19088;DHT22;9676;50.916;13.352;2022-07-23T03:27:54;22.40;53.40
19088;DHT22;9676;50.916;13.352;2022-07-23T03:30:43;22.40;53.40
19088;DHT22;9676;50.916;13.352;2022-07-23T03:33:34;22.50;53.50
19088;DHT22;9676;50.916;13.352;2022-07-23T03:36:23;22.50;53.60
19088;DHT22;9676;50.916;13.352;2022-07-23T03:39:15;22.50;53.60
19088;DHT22;9676;50.916;13.352;2022-07-23T03:42:06;22.60;53.80
19088;DHT22;9676;50.916;13.352;2022-07-23T03:44:56;22.60;53.80
19088;DHT22;9676;50.916;13.352;2022-07-23T03:47:45;22.60;53.80
19088;DHT22;9676;50.916;13.352;2022-07-23T03:50:35;22.70;53.90
19088;DHT22;9676;50.916;13.352;2022-07-23T03:53:25;22.70;54.00
19088;DHT22;9676;50.916;13.352;2022-07-23T03:56:14;22.70;54.00
19088;DHT22;9676;50.916;13.352;2022-07-23T03:59:05;22.70;54.00
19088;DHT22;9676;50.916;13.352;2022-07-23T04:01:55;22.70;54.10
19088;DHT22;9676;50.916;13.352;2022-07-23T04:04:45;22.80;54.20
19088;DHT22;9676;50.916;13.352;2022-07-23T04:07:36;22.80;54.30
19088;DHT22;9676;50.916;13.352;2022-07-23T04:10:26;22.80;54.30
19088;DHT22;9676;50.916;13.352;2022-07-23T04:13:15;22.90;54.50
19088;DHT22;9676;50.916;13.352;2022-07-23T04:16:07;22.90;54.50
19088;DHT22;9676;50.916;13.352;2022-07-23T04:18:56;23.00;54.60
19088;DHT22;9676;50.916;13.352;2022-07-23T04:21:51;23.00;54.70
19088;DHT22;9676;50.916;13.352;2022-07-23T04:24:41;23.10;54.80
19088;DHT22;9676;50.916;13.352;2022-07-23T04:27:31;23.10;54.80
19088;DHT22;9676;50.916;13.352;2022-07-23T04:30:21;23.20;54.80
19088;DHT22;9676;50.916;13.352;2022-07-23T04:33:12;23.30;54.90
19088;DHT22;9676;50.916;13.352;2022-07-23T04:36:02;23.30;54.90
19088;DHT22;9676;50.916;13.352;2022-07-23T04:38:53;23.40;54.80
19088;DHT22;9676;50.916;13.352;2022-07-23T04:41:42;23.40;54.80
19088;DHT22;9676;50.916;13.352;2022-07-23T04:44:32;23.50;54.90
19088;DHT22;9676;50.916;13.352;2022-07-23T04:47:23;23.50;54.90
19088;DHT22;9676;50.916;13.352;2022-07-23T04:50:18;23.60;54.90
19088;DHT22;9676;50.916;13.352;2022-07-23T04:53:12;23.50;54.70
19088;DHT22;9676;50.916;13.352;2022-07-23T04:56:03;23.60;54.70
19088;DHT22;9676;50.916;13.352;2022-07-23T04:58:53;23.60;54.80
19088;DHT22;9676;50.916;13.352;2022-07-23T05:01:42;23.60;54.70
19088;DHT22;9676;50.916;13.352;2022-07-23T05:04:32;23.60;54.80
19088;DHT22;9676;50.916;13.352;2022-07-23T05:07:24;23.60;54.90
19088;DHT22;9676;50.916;13.352;2022-07-23T05:10:14;23.70;55.00
19088;DHT22;9676;50.916;13.352;2022-07-23T05:13:04;23.70;54.90
19088;DHT22;9676;50.916;13.352;2022-07-23T05:15:53;23.70;55.00
19088;DHT22;9676;50.916;13.352;2022-07-23T05:18:44;23.80;55.10
19088;DHT22;9676;50.916;13.352;2022-07-23T05:21:34;23.80;55.10
19088;DHT22;9676;50.916;13.352;2022-07-23T05:24:25;23.90;55.10
19088;DHT22;9676;50.916;13.352;2022-07-23T05:27:15;23.90;55.10
19088;DHT22;9676;50.916;13.352;2022-07-23T05:30:05;23.90;55.00
19088;DHT22;9676;50.916;13.352;2022-07-23T05:32:59;23.90;55.00
19088;DHT22;9676;50.916;13.352;2022-07-23T05:35:50;23.90;55.00
19088;DHT22;9676;50.916;13.352;2022-07-23T05:38:47;23.80;54.90
19088;DHT22;9676;50.916;13.352;2022-07-23T05:41:38;23.80;55.00
19088;DHT22;9676;50.916;13.352;2022-07-23T05:44:27;23.80;55.10
19088;DHT22;9676;50.916;13.352;2022-07-23T05:47:21;23.90;55.10
19088;DHT22;9676;50.916;13.352;2022-07-23T05:50:12;23.90;55.10
19088;DHT22;9676;50.916;13.352;2022-07-23T05:53:06;23.90;55.10
19088;DHT22;9676;50.916;13.352;2022-07-23T05:56:16;23.90;55.00
19088;DHT22;9676;50.916;13.352;2022-07-23T05:59:07;23.90;55.00
19088;DHT22;9676;50.916;13.352;2022-07-23T06:01:57;23.90;55.00
19088;DHT22;9676;50.916;13.352;2022-07-23T06:04:47;23.90;55.10
19088;DHT22;9676;50.916;13.352;2022-07-23T06:07:46;23.90;55.00
19088;DHT22;9676;50.916;13.352;2022-07-23T06:10:36;23.90;55.00
19088;DHT22;9676;50.916;13.352;2022-07-23T06:13:26;23.90;55.00
19088;DHT22;9676;50.916;13.352;2022-07-23T06:16:17;23.90;55.00
19088;DHT22;9676;50.916;13.352;2022-07-23T06:19:06;23.90;55.00
19088;DHT22;9676;50.916;13.352;2022-07-23T06:21:56;23.90;55.00
19088;DHT22;9676;50.916;13.352;2022-07-23T06:24:48;23.90;55.00
19088;DHT22;9676;50.916;13.352;2022-07-23T06:27:40;23.90;55.10
19088;DHT22;9676;50.916;13.352;2022-07-23T06:30:32;23.90;55.10
19088;DHT22;9676;50.916;13.352;2022-07-23T06:33:25;23.90;55.20
19088;DHT22;9676;50.916;13.352;2022-07-23T06:36:14;24.00;55.30
19088;DHT22;9676;50.916;13.352;2022-07-23T06:39:04;24.00;55.10
19088;DHT22;9676;50.916;13.352;2022-07-23T06:41:56;24.00;55.10
19088;DHT22;9676;50.916;13.352;2022-07-23T06:45:08;24.00;55.20
19088;DHT22;9676;50.916;13.352;2022-07-23T06:47:58;24.10;55.10
19088;DHT22;9676;50.916;13.352;2022-07-23T06:50:51;24.20;55.30
19088;DHT22;9676;50.916;13.352;2022-07-23T06:53:44;24.20;55.30
19088;DHT22;9676;50.916;13.352;2022-07-23T06:56:34;24.20;55.20
19088;DHT22;9676;50.916;13.352;2022-07-23T06:59:23;24.30;55.40
19088;DHT22;9676;50.916;13.352;2022-07-23T07:02:13;24.40;55.40
19088;DHT22;9676;50.916;13.352;2022-07-23T07:05:02;24.40;55.30
19088;DHT22;9676;50.916;13.352;2022-07-23T07:07:55;24.50;55.50
19088;DHT22;9676;50.916;13.352;2022-07-23T07:10:44;24.60;55.60
19088;DHT22;9676;50.916;13.352;2022-07-23T07:13:34;24.80;55.80
19088;DHT22;9676;50.916;13.352;2022-07-23T07:16:23;25.00;56.60
19088;DHT22;9676;50.916;13.352;2022-07-23T07:19:19;25.30;57.20
19088;DHT22;9676;50.916;13.352;2022-07-23T07:22:09;25.80;57.70
19088;DHT22;9676;50.916;13.352;2022-07-23T07:24:59;26.40;58.70
19088;DHT22;9676;50.916;13.352;2022-07-23T07:27:49;27.10;59.20
19088;DHT22;9676;50.916;13.352;2022-07-23T07:30:39;27.90;59.60
19088;DHT22;9676;50.916;13.352;2022-07-23T07:33:28;28.80;59.10
19088;DHT22;9676;50.916;13.352;2022-07-23T07:36:18;29.60;57.70
19088;DHT22;9676;50.916;13.352;2022-07-23T07:39:08;30.10;56.20
19088;DHT22;9676;50.916;13.352;2022-07-23T07:41:59;30.40;54.80
19088;DHT22;9676;50.916;13.352;2022-07-23T07:44:49;30.60;54.10
19088;DHT22;9676;50.916;13.352;2022-07-23T07:47:38;30.80;54.80
19088;DHT22;9676;50.916;13.352;2022-07-23T07:50:28;31.00;53.90
19088;DHT22;9676;50.916;13.352;2022-07-23T07:53:18;31.30;53.60
19088;DHT22;9676;50.916;13.352;2022-07-23T07:56:07;31.40;53.20
19088;DHT22;9676;50.916;13.352;2022-07-23T07:58:58;31.70;53.40
19088;DHT22;9676;50.916;13.352;2022-07-23T08:01:49;31.90;53.10
19088;DHT22;9676;50.916;13.352;2022-07-23T08:04:40;32.20;52.80
19088;DHT22;9676;50.916;13.352;2022-07-23T08:07:30;32.60;53.30
19088;DHT22;9676;50.916;13.352;2022-07-23T08:10:20;33.00;53.30
19088;DHT22;9676;50.916;13.352;2022-07-23T08:13:12;33.40;52.70
19088;DHT22;9676;50.916;13.352;2022-07-23T08:16:04;33.70;51.80
19088;DHT22;9676;50.916;13.352;2022-07-23T08:18:55;34.00;51.20
19088;DHT22;9676;50.916;13.352;2022-07-23T08:21:45;34.20;50.70
19088;DHT22;9676;50.916;13.352;2022-07-23T08:24:34;34.50;51.10
19088;DHT22;9676;50.916;13.352;2022-07-23T08:27:23;34.80;51.40
19088;DHT22;9676;50.916;13.352;2022-07-23T08:30:13;35.20;50.80
19088;DHT22;9676;50.916;13.352;2022-07-23T08:33:06;35.50;50.30
19088;DHT22;9676;50.916;13.352;2022-07-23T08:36:18;35.80;49.90
19088;DHT22;9676;50.916;13.352;2022-07-23T08:39:07;36.20;49.70
19088;DHT22;9676;50.916;13.352;2022-07-23T08:41:58;36.40;49.20
19088;DHT22;9676;50.916;13.352;2022-07-23T08:44:48;36.70;48.90
19088;DHT22;9676;50.916;13.352;2022-07-23T08:47:38;36.90;48.40
19088;DHT22;9676;50.916;13.352;2022-07-23T08:50:29;37.10;47.90
19088;DHT22;9676;50.916;13.352;2022-07-23T08:53:19;37.40;48.10
19088;DHT22;9676;50.916;13.352;2022-07-23T08:56:09;37.70;49.20
19088;DHT22;9676;50.916;13.352;2022-07-23T08:58:58;38.20;48.30
19088;DHT22;9676;50.916;13.352;2022-07-23T09:01:48;38.60;48.10
19088;DHT22;9676;50.916;13.352;2022-07-23T09:04:38;39.10;47.70
19088;DHT22;9676;50.916;13.352;2022-07-23T09:07:29;39.40;46.80
19088;DHT22;9676;50.916;13.352;2022-07-23T09:10:18;39.70;45.90
19088;DHT22;9676;50.916;13.352;2022-07-23T09:13:25;39.80;45.20
19088;DHT22;9676;50.916;13.352;2022-07-23T09:16:24;39.90;43.80
19088;DHT22;9676;50.916;13.352;2022-07-23T09:19:14;40.00;44.20
19088;DHT22;9676;50.916;13.352;2022-07-23T09:22:17;40.00;44.10
19088;DHT22;9676;50.916;13.352;2022-07-23T09:25:17;39.90;42.70
19088;DHT22;9676;50.916;13.352;2022-07-23T09:28:07;39.70;42.70
19088;DHT22;9676;50.916;13.352;2022-07-23T09:30:57;39.50;42.40
19088;DHT22;9676;50.916;13.352;2022-07-23T09:33:46;39.10;41.90
19088;DHT22;9676;50.916;13.352;2022-07-23T09:36:36;38.70;41.70
19088;DHT22;9676;50.916;13.352;2022-07-23T09:39:27;38.40;41.60
19088;DHT22;9676;50.916;13.352;2022-07-23T09:42:21;37.90;41.60
19088;DHT22;9676;50.916;13.352;2022-07-23T09:45:12;37.60;41.70
19088;DHT22;9676;50.916;13.352;2022-07-23T09:48:12;37.20;41.80
19088;DHT22;9676;50.916;13.352;2022-07-23T09:51:03;36.90;41.60
19088;DHT22;9676;50.916;13.352;2022-07-23T09:53:53;36.70;42.70
19088;DHT22;9676;50.916;13.352;2022-07-23T09:56:43;36.70;43.80
19088;DHT22;9676;50.916;13.352;2022-07-23T09:59:36;36.90;44.30
19088;DHT22;9676;50.916;13.352;2022-07-23T10:02:28;37.20;44.30
19088;DHT22;9676;50.916;13.352;2022-07-23T10:05:40;37.50;44.30
19088;DHT22;9676;50.916;13.352;2022-07-23T10:08:50;38.00;44.80
19088;DHT22;9676;50.916;13.352;2022-07-23T10:12:13;38.60;45.10
19088;DHT22;9676;50.916;13.352;2022-07-23T10:15:18;39.30;44.90
19088;DHT22;9676;50.916;13.352;2022-07-23T10:18:10;39.90;44.10
19088;DHT22;9676;50.916;13.352;2022-07-23T10:21:05;40.30;43.00
19088;DHT22;9676;50.916;13.352;2022-07-23T10:24:10;40.50;41.80
19088;DHT22;9676;50.916;13.352;2022-07-23T10:27:15;40.50;40.70
19088;DHT22;9676;50.916;13.352;2022-07-23T10:30:45;40.50;40.90
19088;DHT22;9676;50.916;13.352;2022-07-23T10:33:46;40.50;41.20
19088;DHT22;9676;50.916;13.352;2022-07-23T10:36:47;40.60;41.00
19088;DHT22;9676;50.916;13.352;2022-07-23T10:39:40;40.70;40.90
19088;DHT22;9676;50.916;13.352;2022-07-23T10:42:34;40.70;40.90
19088;DHT22;9676;50.916;13.352;2022-07-23T10:45:27;40.70;40.10
19088;DHT22;9676;50.916;13.352;2022-07-23T10:48:21;40.70;40.30
19088;DHT22;9676;50.916;13.352;2022-07-23T10:51:12;40.70;40.30
19088;DHT22;9676;50.916;13.352;2022-07-23T10:54:03;40.70;40.10
19088;DHT22;9676;50.916;13.352;2022-07-23T10:57:06;40.70;39.70
19088;DHT22;9676;50.916;13.352;2022-07-23T11:03:32;40.40;38.70
19088;DHT22;9676;50.916;13.352;2022-07-23T11:06:26;40.10;38.50
19088;DHT22;9676;50.916;13.352;2022-07-23T11:09:54;39.90;38.90
19088;DHT22;9676;50.916;13.352;2022-07-23T11:12:44;39.70;39.20
19088;DHT22;9676;50.916;13.352;2022-07-23T11:16:13;39.70;39.50
19088;DHT22;9676;50.916;13.352;2022-07-23T11:19:12;39.50;38.80
19088;DHT22;9676;50.916;13.352;2022-07-23T11:22:02;39.40;38.80
19088;DHT22;9676;50.916;13.352;2022-07-23T11:24:51;39.20;38.70
19088;DHT22;9676;50.916;13.352;2022-07-23T11:27:42;39.00;38.60
19088;DHT22;9676;50.916;13.352;2022-07-23T11:30:41;38.80;38.70
19088;DHT22;9676;50.916;13.352;2022-07-23T11:33:31;38.60;38.50
19088;DHT22;9676;50.916;13.352;2022-07-23T11:36:22;38.50;38.90
19088;DHT22;9676;50.916;13.352;2022-07-23T11:39:13;38.30;38.90
19088;DHT22;9676;50.916;13.352;2022-07-23T11:42:08;38.20;39.00
19088;DHT22;9676;50.916;13.352;2022-07-23T11:45:00;38.00;38.80
19088;DHT22;9676;50.916;13.352;2022-07-23T11:47:52;37.90;38.70
19088;DHT22;9676;50.916;13.352;2022-07-23T11:50:43;37.70;38.50
19088;DHT22;9676;50.916;13.352;2022-07-23T11:53:34;37.40;38.50
19088;DHT22;9676;50.916;13.352;2022-07-23T11:56:24;37.10;38.50
19088;DHT22;9676;50.916;13.352;2022-07-23T11:59:15;36.70;38.70
19088;DHT22;9676;50.916;13.352;2022-07-23T12:02:06;36.50;38.90
19088;DHT22;9676;50.916;13.352;2022-07-23T12:04:56;36.20;39.10
19088;DHT22;9676;50.916;13.352;2022-07-23T12:07:46;36.00;39.30
19088;DHT22;9676;50.916;13.352;2022-07-23T12:10:41;35.80;39.50
19088;DHT22;9676;50.916;13.352;2022-07-23T12:13:31;35.70;39.70
19088;DHT22;9676;50.916;13.352;2022-07-23T12:16:21;35.50;39.80
19088;DHT22;9676;50.916;13.352;2022-07-23T12:19:11;35.40;40.00
19088;DHT22;9676;50.916;13.352;2022-07-23T12:22:01;35.10;39.80
19088;DHT22;9676;50.916;13.352;2022-07-23T12:24:56;34.90;39.90
19088;DHT22;9676;50.916;13.352;2022-07-23T12:28:00;34.70;40.10
19088;DHT22;9676;50.916;13.352;2022-07-23T12:30:53;34.50;40.30
19088;DHT22;9676;50.916;13.352;2022-07-23T12:33:43;34.20;40.30
19088;DHT22;9676;50.916;13.352;2022-07-23T12:36:37;34.10;40.70
19088;DHT22;9676;50.916;13.352;2022-07-23T12:39:32;33.90;41.20
19088;DHT22;9676;50.916;13.352;2022-07-23T12:42:22;33.90;41.20
19088;DHT22;9676;50.916;13.352;2022-07-23T12:45:13;33.90;41.20
19088;DHT22;9676;50.916;13.352;2022-07-23T12:48:05;33.90;41.20
19088;DHT22;9676;50.916;13.352;2022-07-23T12:50:57;33.90;41.50
19088;DHT22;9676;50.916;13.352;2022-07-23T12:53:48;33.90;41.50
19088;DHT22;9676;50.916;13.352;2022-07-23T12:56:40;33.90;41.50
19088;DHT22;9676;50.916;13.352;2022-07-23T12:59:35;33.90;41.60
19088;DHT22;9676;50.916;13.352;2022-07-23T13:02:44;33.90;41.70
19088;DHT22;9676;50.916;13.352;2022-07-23T13:05:34;33.90;41.80
19088;DHT22;9676;50.916;13.352;2022-07-23T13:08:26;33.90;41.50
19088;DHT22;9676;50.916;13.352;2022-07-23T13:11:17;33.80;41.40
19088;DHT22;9676;50.916;13.352;2022-07-23T13:14:07;33.70;41.40
19088;DHT22;9676;50.916;13.352;2022-07-23T13:16:57;33.60;41.60
19088;DHT22;9676;50.916;13.352;2022-07-23T13:19:47;33.60;41.80
19088;DHT22;9676;50.916;13.352;2022-07-23T13:22:37;33.60;42.00
19088;DHT22;9676;50.916;13.352;2022-07-23T13:25:27;33.60;42.00
19088;DHT22;9676;50.916;13.352;2022-07-23T13:28:18;33.60;41.80
19088;DHT22;9676;50.916;13.352;2022-07-23T13:31:09;33.60;41.90
19088;DHT22;9676;50.916;13.352;2022-07-23T13:33:59;33.60;41.90
19088;DHT22;9676;50.916;13.352;2022-07-23T13:36:50;33.50;41.90
19088;DHT22;9676;50.916;13.352;2022-07-23T13:39:41;33.50;42.10
19088;DHT22;9676;50.916;13.352;2022-07-23T13:42:30;33.60;42.20
19088;DHT22;9676;50.916;13.352;2022-07-23T13:45:21;33.60;42.10
19088;DHT22;9676;50.916;13.352;2022-07-23T13:48:17;33.60;42.00
19088;DHT22;9676;50.916;13.352;2022-07-23T13:51:07;33.60;41.80
19088;DHT22;9676;50.916;13.352;2022-07-23T13:53:59;33.50;41.60
19088;DHT22;9676;50.916;13.352;2022-07-23T13:56:50;33.40;41.60
19088;DHT22;9676;50.916;13.352;2022-07-23T13:59:41;33.30;41.60
19088;DHT22;9676;50.916;13.352;2022-07-23T14:02:30;33.30;41.70
19088;DHT22;9676;50.916;13.352;2022-07-23T14:05:21;33.10;41.60
19088;DHT22;9676;50.916;13.352;2022-07-23T14:08:11;33.00;41.80
19088;DHT22;9676;50.916;13.352;2022-07-23T14:11:03;33.00;42.10
19088;DHT22;9676;50.916;13.352;2022-07-23T14:14:13;33.00;42.30
19088;DHT22;9676;50.916;13.352;2022-07-23T14:17:03;32.90;42.30
19088;DHT22;9676;50.916;13.352;2022-07-23T14:19:54;32.90;42.30
19088;DHT22;9676;50.916;13.352;2022-07-23T14:22:43;32.90;42.20
19088;DHT22;9676;50.916;13.352;2022-07-23T14:25:33;32.80;42.20
19088;DHT22;9676;50.916;13.352;2022-07-23T14:28:27;32.80;42.30
19088;DHT22;9676;50.916;13.352;2022-07-23T14:31:18;32.70;42.50
19088;DHT22;9676;50.916;13.352;2022-07-23T14:34:08;32.70;42.70
19088;DHT22;9676;50.916;13.352;2022-07-23T14:36:59;32.70;42.80
19088;DHT22;9676;50.916;13.352;2022-07-23T14:39:52;32.70;42.80
19088;DHT22;9676;50.916;13.352;2022-07-23T14:42:41;32.60;42.60
19088;DHT22;9676;50.916;13.352;2022-07-23T14:45:32;32.50;42.40
19088;DHT22;9676;50.916;13.352;2022-07-23T14:48:22;32.50;42.50
19088;DHT22;9676;50.916;13.352;2022-07-23T14:51:11;32.40;42.50
19088;DHT22;9676;50.916;13.352;2022-07-23T14:54:01;32.30;42.70
19088;DHT22;9676;50.916;13.352;2022-07-23T14:56:51;32.20;43.00
19088;DHT22;9676;50.916;13.352;2022-07-23T14:59:40;32.20;43.10
19088;DHT22;9676;50.916;13.352;2022-07-23T15:02:32;32.20;43.10
19088;DHT22;9676;50.916;13.352;2022-07-23T15:05:22;32.20;43.20
19088;DHT22;9676;50.916;13.352;2022-07-23T15:08:12;32.10;43.10
19088;DHT22;9676;50.916;13.352;2022-07-23T15:11:07;32.00;43.00
19088;DHT22;9676;50.916;13.352;2022-07-23T15:13:57;32.00;43.10
19088;DHT22;9676;50.916;13.352;2022-07-23T15:16:48;31.90;43.10
19088;DHT22;9676;50.916;13.352;2022-07-23T15:19:40;31.90;43.20
19088;DHT22;9676;50.916;13.352;2022-07-23T15:22:30;31.80;43.30
19088;DHT22;9676;50.916;13.352;2022-07-23T15:25:20;31.80;43.50
19088;DHT22;9676;50.916;13.352;2022-07-23T15:28:13;31.80;43.50
19088;DHT22;9676;50.916;13.352;2022-07-23T15:31:08;31.70;43.40
19088;DHT22;9676;50.916;13.352;2022-07-23T15:33:58;31.70;43.50
19088;DHT22;9676;50.916;13.352;2022-07-23T15:36:50;31.60;43.60
19088;DHT22;9676;50.916;13.352;2022-07-23T15:39:40;31.60;43.60
19088;DHT22;9676;50.916;13.352;2022-07-23T15:42:29;31.50;43.60
19088;DHT22;9676;50.916;13.352;2022-07-23T15:45:19;31.40;43.50
19088;DHT22;9676;50.916;13.352;2022-07-23T15:48:09;31.30;43.40
19088;DHT22;9676;50.916;13.352;2022-07-23T15:50:59;31.20;43.50
19088;DHT22;9676;50.916;13.352;2022-07-23T15:53:51;31.10;43.70
19088;DHT22;9676;50.916;13.352;2022-07-23T15:56:42;31.00;43.90
19088;DHT22;9676;50.916;13.352;2022-07-23T15:59:32;31.00;44.00
19088;DHT22;9676;50.916;13.352;2022-07-23T16:02:21;30.90;43.90
19088;DHT22;9676;50.916;13.352;2022-07-23T16:05:14;30.90;43.90
19088;DHT22;9676;50.916;13.352;2022-07-23T16:08:04;30.80;43.90
19088;DHT22;9676;50.916;13.352;2022-07-23T16:10:55;30.70;43.90
19088;DHT22;9676;50.916;13.352;2022-07-23T16:13:46;30.70;43.80
19088;DHT22;9676;50.916;13.352;2022-07-23T16:16:37;30.60;43.80
19088;DHT22;9676;50.916;13.352;2022-07-23T16:19:26;30.50;43.80
19088;DHT22;9676;50.916;13.352;2022-07-23T16:22:16;30.40;43.80
19088;DHT22;9676;50.916;13.352;2022-07-23T16:25:07;30.30;43.80
19088;DHT22;9676;50.916;13.352;2022-07-23T16:28:00;30.20;43.80
19088;DHT22;9676;50.916;13.352;2022-07-23T16:30:50;30.10;43.90
19088;DHT22;9676;50.916;13.352;2022-07-23T16:33:40;30.00;43.90
19088;DHT22;9676;50.916;13.352;2022-07-23T16:36:30;29.90;44.00
19088;DHT22;9676;50.916;13.352;2022-07-23T16:39:21;29.80;44.10
19088;DHT22;9676;50.916;13.352;2022-07-23T16:42:11;29.80;44.20
19088;DHT22;9676;50.916;13.352;2022-07-23T16:45:06;29.70;44.30
19088;DHT22;9676;50.916;13.352;2022-07-23T16:47:57;29.60;44.40
19088;DHT22;9676;50.916;13.352;2022-07-23T16:50:47;29.60;44.50
19088;DHT22;9676;50.916;13.352;2022-07-23T16:53:38;29.50;44.60
19088;DHT22;9676;50.916;13.352;2022-07-23T16:56:28;29.50;44.70
19088;DHT22;9676;50.916;13.352;2022-07-23T16:59:25;29.50;44.70
19088;DHT22;9676;50.916;13.352;2022-07-23T17:02:16;29.50;44.70
19088;DHT22;9676;50.916;13.352;2022-07-23T17:05:07;29.40;44.70
19088;DHT22;9676;50.916;13.352;2022-07-23T17:07:57;29.40;44.70
19088;DHT22;9676;50.916;13.352;2022-07-23T17:10:47;29.30;44.70
19088;DHT22;9676;50.916;13.352;2022-07-23T17:13:36;29.20;44.70
19088;DHT22;9676;50.916;13.352;2022-07-23T17:16:26;29.10;44.80
19088;DHT22;9676;50.916;13.352;2022-07-23T17:19:17;29.10;44.90
19088;DHT22;9676;50.916;13.352;2022-07-23T17:22:09;29.00;45.00
19088;DHT22;9676;50.916;13.352;2022-07-23T17:24:59;29.00;45.20
19088;DHT22;9676;50.916;13.352;2022-07-23T17:27:49;28.90;45.20
19088;DHT22;9676;50.916;13.352;2022-07-23T17:30:38;28.80;45.10
19088;DHT22;9676;50.916;13.352;2022-07-23T17:33:28;28.70;45.00
19088;DHT22;9676;50.916;13.352;2022-07-23T17:36:18;28.60;45.00
19088;DHT22;9676;50.916;13.352;2022-07-23T17:39:09;28.50;45.00
19088;DHT22;9676;50.916;13.352;2022-07-23T17:42:01;28.40;45.10
19088;DHT22;9676;50.916;13.352;2022-07-23T17:44:52;28.30;45.10
19088;DHT22;9676;50.916;13.352;2022-07-23T17:47:42;28.20;45.10
19088;DHT22;9676;50.916;13.352;2022-07-23T17:50:34;28.10;45.20
19088;DHT22;9676;50.916;13.352;2022-07-23T17:53:25;28.00;45.30
19088;DHT22;9676;50.916;13.352;2022-07-23T17:56:15;27.90;45.40
19088;DHT22;9676;50.916;13.352;2022-07-23T17:59:04;27.80;45.50
19088;DHT22;9676;50.916;13.352;2022-07-23T18:01:55;27.70;45.60
19088;DHT22;9676;50.916;13.352;2022-07-23T18:04:45;27.60;45.60
19088;DHT22;9676;50.916;13.352;2022-07-23T18:07:34;27.60;45.80
19088;DHT22;9676;50.916;13.352;2022-07-23T18:10:25;27.50;45.80